Frances Anne — WDE8555 — position and weather

sailwx.info

Track history (hours):
 
Tides and Currents Weather Stations Pressure Air Temp Water Temp Dewpoint Dewpoint Depression Visibility Wind Speed Wind Dir Waves Ship Positions

Frances Anne

Owner: Frances Anne Inc., West Creek, NJ. More information available from US FCC via Universal Licensing System and Coast Guard Vessel Documentation Center.

Last reported at 2014-Dec-20 00:24 UTC. Time now 2014-Dec-20 00:54 UTC.
Position N 39°46' W 074°07'.

Type: Fishing. MMSI: 367406910.

Date/timePositionNaut miles runAvg speedWind from/ knotsBaromVisibWave heightAir tempDewpointWater temp
2014-Dec-20 00:24N 39°46' W 074°07'0 0.0
2014-Dec-19 23:24N 39°46' W 074°07'0 0.0
2014-Dec-19 22:18N 39°46' W 074°07'0 0.0
2014-Dec-19 21:24N 39°46' W 074°07'0 0.0
2014-Dec-19 20:24N 39°46' W 074°07'0 0.0
2014-Dec-19 19:30N 39°46' W 074°07'0 0.0
2014-Dec-19 18:30N 39°46' W 074°07'0 0.0
2014-Dec-19 17:18N 39°46' W 074°07'0 0.0
2014-Dec-19 16:30N 39°46' W 074°06'0 0.0
2014-Dec-19 15:24N 39°46' W 074°07'0 0.0
2014-Dec-19 14:18N 39°46' W 074°07'0 0.0
2014-Dec-19 13:24N 39°46' W 074°07'0 0.0
2014-Dec-19 12:30N 39°46' W 074°07'0 0.0
2014-Dec-19 11:24N 39°46' W 074°07'0 0.0
2014-Dec-19 10:30N 39°46' W 074°07'0 0.0
2014-Dec-19 09:30N 39°46' W 074°07'0 0.0
2014-Dec-19 08:24N 39°46' W 074°07'0 0.0
2014-Dec-19 07:18N 39°46' W 074°07'0 0.0
2014-Dec-19 06:18N 39°46' W 074°07'0 0.0
2014-Dec-19 05:30N 39°46' W 074°07'0 0.0
2014-Dec-19 04:30N 39°46' W 074°07'0 0.0
2014-Dec-19 03:06N 39°46' W 074°07'0 0.0
2014-Dec-19 02:30N 39°46' W 074°07'0 0.0
2014-Dec-19 01:18N 39°46' W 074°07'0 0.0
2014-Dec-19 00:30N 39°46' W 074°07'0 0.0
2014-Dec-18 23:30N 39°46' W 074°07'0 0.0
2014-Dec-18 22:30N 39°46' W 074°07'0 0.0
2014-Dec-18 21:12N 39°46' W 074°07'0 0.0
2014-Dec-18 20:30N 39°46' W 074°07'0 0.0
2014-Dec-18 19:30N 39°46' W 074°07'0 0.0
2014-Dec-18 18:06N 39°46' W 074°07'0 0.0
2014-Dec-18 17:30N 39°46' W 074°07'0 0.0
2014-Dec-18 16:30N 39°46' W 074°07'0 0.0
2014-Dec-18 15:30N 39°46' W 074°07'0 0.0
2014-Dec-18 14:24N 39°46' W 074°07'0 0.0
2014-Dec-18 13:30N 39°46' W 074°07'0 0.0
2014-Dec-18 12:24N 39°46' W 074°07'0 0.0
2014-Dec-18 11:30N 39°46' W 074°07'0 0.0
2014-Dec-18 10:30N 39°46' W 074°07'0 0.0
2014-Dec-18 09:30N 39°46' W 074°06'0 0.0
2014-Dec-18 08:30N 39°46' W 074°07'0 0.0
2014-Dec-18 07:12N 39°46' W 074°07'0 0.0
2014-Dec-18 06:24N 39°46' W 074°07'0 0.0
2014-Dec-18 05:30N 39°46' W 074°07'0 0.0
2014-Dec-18 04:30N 39°46' W 074°07'0 0.0
2014-Dec-18 03:30N 39°46' W 074°07'0 0.0
2014-Dec-18 02:24N 39°46' W 074°07'0 0.0
2014-Dec-18 01:30N 39°46' W 074°07'0 0.0
2014-Dec-18 00:30N 39°46' W 074°07'1 1.5
2014-Dec-17 23:33N 39°46' W 074°05'4 0.2
2014-Dec-17 01:33N 39°48' W 073°60'6 5.7
2014-Dec-17 00:32N 39°46' W 074°07'0 0.0
2014-Dec-16 23:32N 39°46' W 074°07'0 0.0
2014-Dec-16 22:32N 39°46' W 074°07'0 0.0
2014-Dec-16 21:26N 39°46' W 074°07'0 0.0
2014-Dec-16 20:26N 39°46' W 074°07'0 0.0
2014-Dec-16 19:32N 39°46' W 074°07'0 0.0
2014-Dec-16 18:32N 39°46' W 074°07'0 0.0
2014-Dec-16 17:13N 39°46' W 074°07'0 0.0
2014-Dec-16 16:26N 39°46' W 074°07'0 0.0
2014-Dec-16 15:26N 39°46' W 074°07'0 0.0
2014-Dec-16 14:32N 39°46' W 074°07'0 0.0
2014-Dec-16 13:32N 39°46' W 074°07'0 0.0
2014-Dec-16 12:26N 39°46' W 074°07'0 0.0
2014-Dec-16 11:32N 39°46' W 074°07'0 0.0
2014-Dec-16 10:32N 39°46' W 074°07'0 0.0
2014-Dec-16 09:20N 39°46' W 074°07'0 0.0
2014-Dec-16 08:32N 39°46' W 074°07'0 0.0
2014-Dec-16 07:32N 39°46' W 074°07'0 0.0
2014-Dec-16 06:32N 39°46' W 074°07'0 0.0
2014-Dec-16 05:26N 39°46' W 074°07'0 0.1
2014-Dec-16 03:25N 39°46' W 074°06'9 7.4
2014-Dec-16 02:14N 39°49' W 073°56'47 7.7
2014-Dec-15 20:10N 40°11' W 073°02'5 7.6
2014-Dec-15 19:33N 40°14' W 072°57'7 6.7
2014-Dec-15 18:33N 40°17' W 072°49'1 1.1
2014-Dec-15 17:29N 40°17' W 072°48'1 1.1
2014-Dec-15 16:33N 40°17' W 072°49'1 1.0
2014-Dec-15 15:10N 40°18' W 072°51'1 1.1
2014-Dec-15 14:33N 40°18' W 072°51'1 1.0
2014-Dec-15 13:22N 40°19' W 072°53'1 0.5
2014-Dec-15 11:32N 40°18' W 072°54'1 0.7
2014-Dec-15 10:28N 40°18' W 072°54'2 0.9
2014-Dec-15 08:07N 40°20' W 072°55'1 0.9
2014-Dec-15 07:33N 40°20' W 072°55'1 0.8
2014-Dec-15 06:20N 40°21' W 072°55'1 0.8
2014-Dec-15 05:34N 40°22' W 072°55'1 0.8
2014-Dec-15 04:33N 40°23' W 072°55'1 0.8
2014-Dec-15 03:28N 40°23' W 072°55'1 0.7
2014-Dec-15 02:29N 40°24' W 072°55'4 4.3
2014-Dec-15 01:27N 40°20' W 072°51'4 3.8
2014-Dec-15 00:30N 40°18' W 072°49'2 2.0
2014-Dec-14 23:33N 40°18' W 072°51'1 0.5
2014-Dec-14 22:33N 40°18' W 072°52'1 1.4
2014-Dec-14 21:32N 40°19' W 072°53'1 0.7
2014-Dec-14 20:26N 40°18' W 072°53'1 0.7
2014-Dec-14 19:32N 40°19' W 072°53'2 2.4
2014-Dec-14 18:34N 40°16' W 072°52'8 7.7
2014-Dec-14 17:31N 40°13' W 073°01'8 7.6
2014-Dec-14 16:30N 40°09' W 073°10'44 7.4
2014-Dec-14 10:29N 39°47' W 074°01'4 4.5
2014-Dec-14 09:30N 39°46' W 074°07'0 0.0
2014-Dec-14 08:33N 39°46' W 074°07'0 0.0
2014-Dec-14 06:27N 39°46' W 074°07'0 0.0
2014-Dec-14 05:30N 39°46' W 074°07'0 0.0
2014-Dec-14 04:33N 39°46' W 074°07'0 0.0
2014-Dec-14 03:33N 39°46' W 074°07'0 0.0
2014-Dec-14 02:27N 39°46' W 074°07'0 0.0
2014-Dec-14 01:27N 39°46' W 074°07'0 0.0
2014-Dec-14 00:30N 39°46' W 074°07'0 0.0
2014-Dec-13 23:15N 39°46' W 074°07'0 0.0
2014-Dec-13 22:33N 39°46' W 074°07'0 0.0
2014-Dec-13 21:30N 39°46' W 074°07'0 0.0
2014-Dec-13 20:30N 39°46' W 074°07'0 0.0
2014-Dec-13 19:21N 39°46' W 074°07'0 0.0
2014-Dec-13 18:33N 39°46' W 074°07'0 0.0
2014-Dec-13 17:21N 39°46' W 074°07'0 0.0
2014-Dec-13 16:30N 39°46' W 074°07'0 0.1
2014-Dec-13 14:27N 39°46' W 074°07'0 0.0
2014-Dec-13 13:30N 39°46' W 074°07'0 0.0
2014-Dec-13 12:33N 39°46' W 074°07'0 0.0
2014-Dec-13 11:27N 39°46' W 074°07'0 0.0
2014-Dec-13 10:24N 39°46' W 074°07'0 0.0
2014-Dec-13 09:30N 39°46' W 074°07'0 0.0
2014-Dec-13 08:30N 39°46' W 074°07'0 0.0
2014-Dec-13 07:30N 39°46' W 074°07'0 0.0
2014-Dec-13 06:18N 39°46' W 074°07'0 0.0
2014-Dec-13 05:33N 39°46' W 074°07'0 0.0
2014-Dec-13 04:18N 39°46' W 074°07'0 0.0
2014-Dec-13 03:33N 39°46' W 074°07'0 0.0
2014-Dec-13 02:33N 39°46' W 074°07'0 0.0
2014-Dec-13 01:30N 39°46' W 074°07'0 0.0
2014-Dec-13 00:30N 39°46' W 074°07'0 0.0
2014-Dec-12 23:24N 39°46' W 074°07'0 0.0
2014-Dec-12 22:21N 39°46' W 074°07'0 0.0
2014-Dec-12 21:24N 39°46' W 074°07'0 0.0
2014-Dec-12 20:24N 39°46' W 074°07'0 0.0
2014-Dec-12 19:30N 39°46' W 074°07'0 0.0
2014-Dec-12 18:27N 39°46' W 074°07'0 0.0
2014-Dec-12 17:27N 39°46' W 074°07'0 0.0
2014-Dec-12 16:27N 39°46' W 074°07'0 0.0
2014-Dec-12 15:09N 39°46' W 074°07'0 0.0
2014-Dec-12 14:27N 39°46' W 074°07'0 0.0
2014-Dec-12 13:33N 39°46' W 074°07'0 0.0
2014-Dec-12 12:30N 39°46' W 074°07'0 0.0
2014-Dec-12 11:12N 39°46' W 074°07'0 0.0
2014-Dec-12 10:30N 39°46' W 074°07'0 0.0
2014-Dec-12 09:27N 39°46' W 074°07'0 0.0
2014-Dec-12 08:33N 39°46' W 074°07'0 0.0
2014-Dec-12 07:24N 39°46' W 074°07'0 0.0
2014-Dec-12 06:30N 39°46' W 074°07'0 0.0
2014-Dec-12 05:09N 39°46' W 074°07'0 0.0
2014-Dec-12 04:06N 39°46' W 074°07'0 0.0
2014-Dec-12 03:24N 39°46' W 074°07'0 0.0
2014-Dec-12 02:33N 39°46' W 074°07'0 0.0
2014-Dec-12 01:12N 39°46' W 074°07'0 0.0
2014-Dec-12 00:33N 39°46' W 074°07'0 0.0
2014-Dec-11 23:33N 39°46' W 074°07'0 0.0
2014-Dec-11 22:30N 39°46' W 074°07'0 0.0
2014-Dec-11 21:18N 39°46' W 074°07'0 0.0
2014-Dec-11 20:30N 39°46' W 074°07'0 0.0
2014-Dec-11 19:30N 39°46' W 074°07'0 0.0
2014-Dec-11 18:30N 39°46' W 074°07'0 0.0
2014-Dec-11 17:30N 39°46' W 074°07'0 0.0
2014-Dec-11 16:30N 39°46' W 074°07'0 0.0
2014-Dec-11 14:15N 39°46' W 074°07'0 0.0
2014-Dec-11 13:30N 39°46' W 074°07'0 0.0
2014-Dec-11 12:30N 39°46' W 074°07'0 0.0
2014-Dec-11 11:30N 39°46' W 074°07'0 0.0
2014-Dec-11 10:18N 39°46' W 074°07'0 0.0
2014-Dec-11 07:21N 39°46' W 074°07'0 0.0
2014-Dec-11 06:18N 39°46' W 074°07'0 0.0
2014-Dec-11 05:30N 39°46' W 074°07'0 0.0
2014-Dec-11 04:30N 39°46' W 074°07'0 0.0
2014-Dec-11 03:24N 39°46' W 074°07'0 0.0
2014-Dec-11 02:30N 39°46' W 074°07'0 0.0
2014-Dec-11 01:27N 39°46' W 074°07'0 0.0
2014-Dec-11 00:33N 39°46' W 074°07'0 0.0
2014-Dec-10 23:27N 39°46' W 074°07'0 0.0
2014-Dec-10 22:27N 39°46' W 074°07'0 0.0
2014-Dec-10 21:12N 39°46' W 074°07'0 0.0
2014-Dec-10 20:30N 39°46' W 074°07'0 0.0
2014-Dec-10 19:30N 39°46' W 074°07'0 0.0
2014-Dec-10 17:27N 39°46' W 074°07'0 0.0
2014-Dec-10 16:33N 39°46' W 074°07'0 0.0
2014-Dec-10 15:06N 39°46' W 074°07'0 0.0
2014-Dec-10 14:15N 39°46' W 074°07'0 0.0
2014-Dec-10 13:33N 39°46' W 074°07'0 0.0
2014-Dec-10 12:24N 39°46' W 074°07'0 0.0
2014-Dec-10 11:24N 39°46' W 074°07'0 0.0
2014-Dec-10 10:30N 39°46' W 074°07'0 0.0
2014-Dec-10 09:33N 39°46' W 074°07'0 0.0
2014-Dec-10 08:33N 39°46' W 074°07'0 0.0
2014-Dec-10 07:27N 39°46' W 074°07'0 0.0
2014-Dec-10 06:33N 39°46' W 074°07'0 0.0
2014-Dec-10 05:30N 39°46' W 074°07'0 0.0
2014-Dec-10 04:18N 39°46' W 074°07'0 0.0
2014-Dec-10 03:18N 39°46' W 074°07'0 0.0
2014-Dec-10 02:33N 39°46' W 074°07'0 0.0
2014-Dec-10 01:33N 39°46' W 074°07'0 0.0
2014-Dec-10 00:27N 39°46' W 074°07'  
Track history (hours):
 
Tides and Currents Weather Stations Pressure Air Temp Water Temp Dewpoint Dewpoint Depression Visibility Wind Speed Wind Dir Waves Ship Positions

Frances Anne

Owner: Frances Anne Inc., West Creek, NJ. More information available from US FCC via Universal Licensing System and Coast Guard Vessel Documentation Center.

Last reported at 2014-Dec-20 00:24 UTC. Time now 2014-Dec-20 00:54 UTC.
Position N 39°46' W 074°07'.

Type: Fishing. MMSI: 367406910.

Date/timePositionNaut miles runAvg speedWind from/ knotsBaromVisibWave heightAir tempDewpointWater temp
2014-Dec-20 00:24N 39°46' W 074°07'0 0.0
2014-Dec-19 23:24N 39°46' W 074°07'0 0.0
2014-Dec-19 22:18N 39°46' W 074°07'0 0.0
2014-Dec-19 21:24N 39°46' W 074°07'0 0.0
2014-Dec-19 20:24N 39°46' W 074°07'0 0.0
2014-Dec-19 19:30N 39°46' W 074°07'0 0.0
2014-Dec-19 18:30N 39°46' W 074°07'0 0.0
2014-Dec-19 17:18N 39°46' W 074°07'0 0.0
2014-Dec-19 16:30N 39°46' W 074°06'0 0.0
2014-Dec-19 15:24N 39°46' W 074°07'0 0.0
2014-Dec-19 14:18N 39°46' W 074°07'0 0.0
2014-Dec-19 13:24N 39°46' W 074°07'0 0.0
2014-Dec-19 12:30N 39°46' W 074°07'0 0.0
2014-Dec-19 11:24N 39°46' W 074°07'0 0.0
2014-Dec-19 10:30N 39°46' W 074°07'0 0.0
2014-Dec-19 09:30N 39°46' W 074°07'0 0.0
2014-Dec-19 08:24N 39°46' W 074°07'0 0.0
2014-Dec-19 07:18N 39°46' W 074°07'0 0.0
2014-Dec-19 06:18N 39°46' W 074°07'0 0.0
2014-Dec-19 05:30N 39°46' W 074°07'0 0.0
2014-Dec-19 04:30N 39°46' W 074°07'0 0.0
2014-Dec-19 03:06N 39°46' W 074°07'0 0.0
2014-Dec-19 02:30N 39°46' W 074°07'0 0.0
2014-Dec-19 01:18N 39°46' W 074°07'0 0.0
2014-Dec-19 00:30N 39°46' W 074°07'0 0.0
2014-Dec-18 23:30N 39°46' W 074°07'0 0.0
2014-Dec-18 22:30N 39°46' W 074°07'0 0.0
2014-Dec-18 21:12N 39°46' W 074°07'0 0.0
2014-Dec-18 20:30N 39°46' W 074°07'0 0.0
2014-Dec-18 19:30N 39°46' W 074°07'0 0.0
2014-Dec-18 18:06N 39°46' W 074°07'0 0.0
2014-Dec-18 17:30N 39°46' W 074°07'0 0.0
2014-Dec-18 16:30N 39°46' W 074°07'0 0.0
2014-Dec-18 15:30N 39°46' W 074°07'0 0.0
2014-Dec-18 14:24N 39°46' W 074°07'0 0.0
2014-Dec-18 13:30N 39°46' W 074°07'0 0.0
2014-Dec-18 12:24N 39°46' W 074°07'0 0.0
2014-Dec-18 11:30N 39°46' W 074°07'0 0.0
2014-Dec-18 10:30N 39°46' W 074°07'0 0.0
2014-Dec-18 09:30N 39°46' W 074°06'0 0.0
2014-Dec-18 08:30N 39°46' W 074°07'0 0.0
2014-Dec-18 07:12N 39°46' W 074°07'0 0.0
2014-Dec-18 06:24N 39°46' W 074°07'0 0.0
2014-Dec-18 05:30N 39°46' W 074°07'0 0.0
2014-Dec-18 04:30N 39°46' W 074°07'0 0.0
2014-Dec-18 03:30N 39°46' W 074°07'0 0.0
2014-Dec-18 02:24N 39°46' W 074°07'0 0.0
2014-Dec-18 01:30N 39°46' W 074°07'0 0.0
2014-Dec-18 00:30N 39°46' W 074°07'1 1.5
2014-Dec-17 23:33N 39°46' W 074°05'4 0.2
2014-Dec-17 01:33N 39°48' W 073°60'6 5.7
2014-Dec-17 00:32N 39°46' W 074°07'0 0.0
2014-Dec-16 23:32N 39°46' W 074°07'0 0.0
2014-Dec-16 22:32N 39°46' W 074°07'0 0.0
2014-Dec-16 21:26N 39°46' W 074°07'0 0.0
2014-Dec-16 20:26N 39°46' W 074°07'0 0.0
2014-Dec-16 19:32N 39°46' W 074°07'0 0.0
2014-Dec-16 18:32N 39°46' W 074°07'0 0.0
2014-Dec-16 17:13N 39°46' W 074°07'0 0.0
2014-Dec-16 16:26N 39°46' W 074°07'0 0.0
2014-Dec-16 15:26N 39°46' W 074°07'0 0.0
2014-Dec-16 14:32N 39°46' W 074°07'0 0.0
2014-Dec-16 13:32N 39°46' W 074°07'0 0.0
2014-Dec-16 12:26N 39°46' W 074°07'0 0.0
2014-Dec-16 11:32N 39°46' W 074°07'0 0.0
2014-Dec-16 10:32N 39°46' W 074°07'0 0.0
2014-Dec-16 09:20N 39°46' W 074°07'0 0.0
2014-Dec-16 08:32N 39°46' W 074°07'0 0.0
2014-Dec-16 07:32N 39°46' W 074°07'0 0.0
2014-Dec-16 06:32N 39°46' W 074°07'0 0.0
2014-Dec-16 05:26N 39°46' W 074°07'0 0.1
2014-Dec-16 03:25N 39°46' W 074°06'9 7.4
2014-Dec-16 02:14N 39°49' W 073°56'47 7.7
2014-Dec-15 20:10N 40°11' W 073°02'5 7.6
2014-Dec-15 19:33N 40°14' W 072°57'7 6.7
2014-Dec-15 18:33N 40°17' W 072°49'1 1.1
2014-Dec-15 17:29N 40°17' W 072°48'1 1.1
2014-Dec-15 16:33N 40°17' W 072°49'1 1.0
2014-Dec-15 15:10N 40°18' W 072°51'1 1.1
2014-Dec-15 14:33N 40°18' W 072°51'1 1.0
2014-Dec-15 13:22N 40°19' W 072°53'1 0.5
2014-Dec-15 11:32N 40°18' W 072°54'1 0.7
2014-Dec-15 10:28N 40°18' W 072°54'2 0.9
2014-Dec-15 08:07N 40°20' W 072°55'1 0.9
2014-Dec-15 07:33N 40°20' W 072°55'1 0.8
2014-Dec-15 06:20N 40°21' W 072°55'1 0.8
2014-Dec-15 05:34N 40°22' W 072°55'1 0.8
2014-Dec-15 04:33N 40°23' W 072°55'1 0.8
2014-Dec-15 03:28N 40°23' W 072°55'1 0.7
2014-Dec-15 02:29N 40°24' W 072°55'4 4.3
2014-Dec-15 01:27N 40°20' W 072°51'4 3.8
2014-Dec-15 00:30N 40°18' W 072°49'2 2.0
2014-Dec-14 23:33N 40°18' W 072°51'1 0.5
2014-Dec-14 22:33N 40°18' W 072°52'1 1.4
2014-Dec-14 21:32N 40°19' W 072°53'1 0.7
2014-Dec-14 20:26N 40°18' W 072°53'1 0.7
2014-Dec-14 19:32N 40°19' W 072°53'2 2.4
2014-Dec-14 18:34N 40°16' W 072°52'8 7.7
2014-Dec-14 17:31N 40°13' W 073°01'8 7.6
2014-Dec-14 16:30N 40°09' W 073°10'44 7.4
2014-Dec-14 10:29N 39°47' W 074°01'4 4.5
2014-Dec-14 09:30N 39°46' W 074°07'0 0.0
2014-Dec-14 08:33N 39°46' W 074°07'0 0.0
2014-Dec-14 06:27N 39°46' W 074°07'0 0.0
2014-Dec-14 05:30N 39°46' W 074°07'0 0.0
2014-Dec-14 04:33N 39°46' W 074°07'0 0.0
2014-Dec-14 03:33N 39°46' W 074°07'0 0.0
2014-Dec-14 02:27N 39°46' W 074°07'0 0.0
2014-Dec-14 01:27N 39°46' W 074°07'0 0.0
2014-Dec-14 00:30N 39°46' W 074°07'0 0.0
2014-Dec-13 23:15N 39°46' W 074°07'0 0.0
2014-Dec-13 22:33N 39°46' W 074°07'0 0.0
2014-Dec-13 21:30N 39°46' W 074°07'0 0.0
2014-Dec-13 20:30N 39°46' W 074°07'0 0.0
2014-Dec-13 19:21N 39°46' W 074°07'0 0.0
2014-Dec-13 18:33N 39°46' W 074°07'0 0.0
2014-Dec-13 17:21N 39°46' W 074°07'0 0.0
2014-Dec-13 16:30N 39°46' W 074°07'0 0.1
2014-Dec-13 14:27N 39°46' W 074°07'0 0.0
2014-Dec-13 13:30N 39°46' W 074°07'0 0.0
2014-Dec-13 12:33N 39°46' W 074°07'0 0.0
2014-Dec-13 11:27N 39°46' W 074°07'0 0.0
2014-Dec-13 10:24N 39°46' W 074°07'0 0.0
2014-Dec-13 09:30N 39°46' W 074°07'0 0.0
2014-Dec-13 08:30N 39°46' W 074°07'0 0.0
2014-Dec-13 07:30N 39°46' W 074°07'0 0.0
2014-Dec-13 06:18N 39°46' W 074°07'0 0.0
2014-Dec-13 05:33N 39°46' W 074°07'0 0.0
2014-Dec-13 04:18N 39°46' W 074°07'0 0.0
2014-Dec-13 03:33N 39°46' W 074°07'0 0.0
2014-Dec-13 02:33N 39°46' W 074°07'0 0.0
2014-Dec-13 01:30N 39°46' W 074°07'0 0.0
2014-Dec-13 00:30N 39°46' W 074°07'0 0.0
2014-Dec-12 23:24N 39°46' W 074°07'0 0.0
2014-Dec-12 22:21N 39°46' W 074°07'0 0.0
2014-Dec-12 21:24N 39°46' W 074°07'0 0.0
2014-Dec-12 20:24N 39°46' W 074°07'0 0.0
2014-Dec-12 19:30N 39°46' W 074°07'0 0.0
2014-Dec-12 18:27N 39°46' W 074°07'0 0.0
2014-Dec-12 17:27N 39°46' W 074°07'0 0.0
2014-Dec-12 16:27N 39°46' W 074°07'0 0.0
2014-Dec-12 15:09N 39°46' W 074°07'0 0.0
2014-Dec-12 14:27N 39°46' W 074°07'0 0.0
2014-Dec-12 13:33N 39°46' W 074°07'0 0.0
2014-Dec-12 12:30N 39°46' W 074°07'0 0.0
2014-Dec-12 11:12N 39°46' W 074°07'0 0.0
2014-Dec-12 10:30N 39°46' W 074°07'0 0.0
2014-Dec-12 09:27N 39°46' W 074°07'0 0.0
2014-Dec-12 08:33N 39°46' W 074°07'0 0.0
2014-Dec-12 07:24N 39°46' W 074°07'0 0.0
2014-Dec-12 06:30N 39°46' W 074°07'0 0.0
2014-Dec-12 05:09N 39°46' W 074°07'0 0.0
2014-Dec-12 04:06N 39°46' W 074°07'0 0.0
2014-Dec-12 03:24N 39°46' W 074°07'0 0.0
2014-Dec-12 02:33N 39°46' W 074°07'0 0.0
2014-Dec-12 01:12N 39°46' W 074°07'0 0.0
2014-Dec-12 00:33N 39°46' W 074°07'0 0.0
2014-Dec-11 23:33N 39°46' W 074°07'0 0.0
2014-Dec-11 22:30N 39°46' W 074°07'0 0.0
2014-Dec-11 21:18N 39°46' W 074°07'0 0.0
2014-Dec-11 20:30N 39°46' W 074°07'0 0.0
2014-Dec-11 19:30N 39°46' W 074°07'0 0.0
2014-Dec-11 18:30N 39°46' W 074°07'0 0.0
2014-Dec-11 17:30N 39°46' W 074°07'0 0.0
2014-Dec-11 16:30N 39°46' W 074°07'0 0.0
2014-Dec-11 14:15N 39°46' W 074°07'0 0.0
2014-Dec-11 13:30N 39°46' W 074°07'0 0.0
2014-Dec-11 12:30N 39°46' W 074°07'0 0.0
2014-Dec-11 11:30N 39°46' W 074°07'0 0.0
2014-Dec-11 10:18N 39°46' W 074°07'0 0.0
2014-Dec-11 07:21N 39°46' W 074°07'0 0.0
2014-Dec-11 06:18N 39°46' W 074°07'0 0.0
2014-Dec-11 05:30N 39°46' W 074°07'0 0.0
2014-Dec-11 04:30N 39°46' W 074°07'0 0.0
2014-Dec-11 03:24N 39°46' W 074°07'0 0.0
2014-Dec-11 02:30N 39°46' W 074°07'0 0.0
2014-Dec-11 01:27N 39°46' W 074°07'0 0.0
2014-Dec-11 00:33N 39°46' W 074°07'0 0.0
2014-Dec-10 23:27N 39°46' W 074°07'0 0.0
2014-Dec-10 22:27N 39°46' W 074°07'0 0.0
2014-Dec-10 21:12N 39°46' W 074°07'0 0.0
2014-Dec-10 20:30N 39°46' W 074°07'0 0.0
2014-Dec-10 19:30N 39°46' W 074°07'0 0.0
2014-Dec-10 17:27N 39°46' W 074°07'0 0.0
2014-Dec-10 16:33N 39°46' W 074°07'0 0.0
2014-Dec-10 15:06N 39°46' W 074°07'0 0.0
2014-Dec-10 14:15N 39°46' W 074°07'0 0.0
2014-Dec-10 13:33N 39°46' W 074°07'0 0.0
2014-Dec-10 12:24N 39°46' W 074°07'0 0.0
2014-Dec-10 11:24N 39°46' W 074°07'0 0.0
2014-Dec-10 10:30N 39°46' W 074°07'0 0.0
2014-Dec-10 09:33N 39°46' W 074°07'0 0.0
2014-Dec-10 08:33N 39°46' W 074°07'0 0.0
2014-Dec-10 07:27N 39°46' W 074°07'0 0.0
2014-Dec-10 06:33N 39°46' W 074°07'0 0.0
2014-Dec-10 05:30N 39°46' W 074°07'0 0.0
2014-Dec-10 04:18N 39°46' W 074°07'0 0.0
2014-Dec-10 03:18N 39°46' W 074°07'0 0.0
2014-Dec-10 02:33N 39°46' W 074°07'0 0.0
2014-Dec-10 01:33N 39°46' W 074°07'0 0.0
2014-Dec-10 00:27N 39°46' W 074°07'  

Dump ship's entire track history